sensor_id;sensor_type;location;lat;lon;timestamp;temperature;humidity
12504;DHT22;6316;48.118;-1.690;2023-03-29T00:00:11;13.70;99.90
12504;DHT22;6316;48.118;-1.690;2023-03-29T00:02:42;13.70;99.90
12504;DHT22;6316;48.118;-1.690;2023-03-29T00:05:13;13.70;99.90
12504;DHT22;6316;48.118;-1.690;2023-03-29T00:07:39;13.70;99.90
12504;DHT22;6316;48.118;-1.690;2023-03-29T00:10:06;13.70;99.90
12504;DHT22;6316;48.118;-1.690;2023-03-29T00:12:35;13.70;99.90
12504;DHT22;6316;48.118;-1.690;2023-03-29T00:15:03;13.70;99.90
12504;DHT22;6316;48.118;-1.690;2023-03-29T00:17:29;13.70;99.90
12504;DHT22;6316;48.118;-1.690;2023-03-29T00:19:55;13.70;99.90
12504;DHT22;6316;48.118;-1.690;2023-03-29T00:22:20;13.70;99.90
12504;DHT22;6316;48.118;-1.690;2023-03-29T00:24:46;13.70;99.90
12504;DHT22;6316;48.118;-1.690;2023-03-29T00:27:14;13.70;99.90
12504;DHT22;6316;48.118;-1.690;2023-03-29T00:29:40;13.70;99.90
12504;DHT22;6316;48.118;-1.690;2023-03-29T00:32:06;13.70;99.90
12504;DHT22;6316;48.118;-1.690;2023-03-29T00:34:32;13.70;99.90
12504;DHT22;6316;48.118;-1.690;2023-03-29T00:37:01;13.70;99.90
12504;DHT22;6316;48.118;-1.690;2023-03-29T00:39:26;13.70;99.90
12504;DHT22;6316;48.118;-1.690;2023-03-29T00:41:53;13.70;99.90
12504;DHT22;6316;48.118;-1.690;2023-03-29T00:45:05;13.70;99.90
12504;DHT22;6316;48.118;-1.690;2023-03-29T00:47:38;13.70;99.90
12504;DHT22;6316;48.118;-1.690;2023-03-29T00:50:21;13.70;99.90
12504;DHT22;6316;48.118;-1.690;2023-03-29T00:53:16;13.70;99.90
12504;DHT22;6316;48.118;-1.690;2023-03-29T00:55:59;13.70;99.90
12504;DHT22;6316;48.118;-1.690;2023-03-29T00:58:37;13.70;99.90
12504;DHT22;6316;48.118;-1.690;2023-03-29T01:01:09;13.60;99.90
12504;DHT22;6316;48.118;-1.690;2023-03-29T01:03:43;13.60;99.90
12504;DHT22;6316;48.118;-1.690;2023-03-29T01:06:13;13.60;99.90
12504;DHT22;6316;48.118;-1.690;2023-03-29T01:08:48;13.70;99.90
12504;DHT22;6316;48.118;-1.690;2023-03-29T01:11:50;13.60;99.90
12504;DHT22;6316;48.118;-1.690;2023-03-29T01:16:49;13.60;99.90
12504;DHT22;6316;48.118;-1.690;2023-03-29T01:19:17;13.60;99.90
12504;DHT22;6316;48.118;-1.690;2023-03-29T01:21:52;13.70;99.90
12504;DHT22;6316;48.118;-1.690;2023-03-29T01:27:48;13.60;99.90
12504;DHT22;6316;48.118;-1.690;2023-03-29T01:33:23;13.60;99.90
12504;DHT22;6316;48.118;-1.690;2023-03-29T01:36:00;13.60;99.90
12504;DHT22;6316;48.118;-1.690;2023-03-29T01:38:40;13.60;99.90
12504;DHT22;6316;48.118;-1.690;2023-03-29T01:41:08;13.60;99.90
12504;DHT22;6316;48.118;-1.690;2023-03-29T01:43:55;13.60;99.90
12504;DHT22;6316;48.118;-1.690;2023-03-29T01:51:51;13.60;99.90
12504;DHT22;6316;48.118;-1.690;2023-03-29T01:54:23;13.60;99.90
12504;DHT22;6316;48.118;-1.690;2023-03-29T01:56:51;13.60;99.90
12504;DHT22;6316;48.118;-1.690;2023-03-29T01:59:20;13.60;99.90
12504;DHT22;6316;48.118;-1.690;2023-03-29T02:01:52;13.60;99.90
12504;DHT22;6316;48.118;-1.690;2023-03-29T02:04:36;13.60;99.90
12504;DHT22;6316;48.118;-1.690;2023-03-29T02:07:04;13.60;99.90
12504;DHT22;6316;48.118;-1.690;2023-03-29T02:09:32;13.60;99.90
12504;DHT22;6316;48.118;-1.690;2023-03-29T02:12:00;13.60;99.90
12504;DHT22;6316;48.118;-1.690;2023-03-29T02:14:26;13.60;99.90
12504;DHT22;6316;48.118;-1.690;2023-03-29T02:16:52;13.60;99.90
12504;DHT22;6316;48.118;-1.690;2023-03-29T02:19:18;13.60;99.90
12504;DHT22;6316;48.118;-1.690;2023-03-29T02:22:00;13.60;99.90
12504;DHT22;6316;48.118;-1.690;2023-03-29T02:24:29;13.60;99.90
12504;DHT22;6316;48.118;-1.690;2023-03-29T02:26:58;13.60;99.90
12504;DHT22;6316;48.118;-1.690;2023-03-29T02:29:24;13.60;99.90
12504;DHT22;6316;48.118;-1.690;2023-03-29T02:31:54;13.60;99.90
12504;DHT22;6316;48.118;-1.690;2023-03-29T02:34:29;13.60;99.90
12504;DHT22;6316;48.118;-1.690;2023-03-29T02:37:01;13.60;99.90
12504;DHT22;6316;48.118;-1.690;2023-03-29T02:39:31;13.60;99.90
12504;DHT22;6316;48.118;-1.690;2023-03-29T02:41:58;13.60;99.90
12504;DHT22;6316;48.118;-1.690;2023-03-29T02:44:30;13.60;99.90
12504;DHT22;6316;48.118;-1.690;2023-03-29T02:47:02;13.60;99.90
12504;DHT22;6316;48.118;-1.690;2023-03-29T02:49:31;13.60;99.90
12504;DHT22;6316;48.118;-1.690;2023-03-29T02:52:00;13.60;99.90
12504;DHT22;6316;48.118;-1.690;2023-03-29T02:54:29;13.60;99.90
12504;DHT22;6316;48.118;-1.690;2023-03-29T02:57:00;13.60;99.90
12504;DHT22;6316;48.118;-1.690;2023-03-29T02:59:27;13.60;99.90
12504;DHT22;6316;48.118;-1.690;2023-03-29T03:01:58;13.60;99.90
12504;DHT22;6316;48.118;-1.690;2023-03-29T03:04:23;13.60;99.90
12504;DHT22;6316;48.118;-1.690;2023-03-29T03:06:50;13.60;99.90
12504;DHT22;6316;48.118;-1.690;2023-03-29T03:09:15;13.60;99.90
12504;DHT22;6316;48.118;-1.690;2023-03-29T03:11:41;13.60;99.90
12504;DHT22;6316;48.118;-1.690;2023-03-29T03:14:07;13.60;99.90
12504;DHT22;6316;48.118;-1.690;2023-03-29T03:16:33;13.60;99.90
12504;DHT22;6316;48.118;-1.690;2023-03-29T03:18:58;13.60;99.90
12504;DHT22;6316;48.118;-1.690;2023-03-29T03:21:25;13.60;99.90
12504;DHT22;6316;48.118;-1.690;2023-03-29T03:23:53;13.60;99.90
12504;DHT22;6316;48.118;-1.690;2023-03-29T03:26:19;13.60;99.90
12504;DHT22;6316;48.118;-1.690;2023-03-29T03:28:45;13.60;99.90
12504;DHT22;6316;48.118;-1.690;2023-03-29T03:31:11;13.60;99.90
12504;DHT22;6316;48.118;-1.690;2023-03-29T03:33:40;13.60;99.90
12504;DHT22;6316;48.118;-1.690;2023-03-29T03:36:09;13.60;99.90
12504;DHT22;6316;48.118;-1.690;2023-03-29T03:38:36;13.60;99.90
12504;DHT22;6316;48.118;-1.690;2023-03-29T03:41:03;13.60;99.90
12504;DHT22;6316;48.118;-1.690;2023-03-29T03:43:29;13.60;99.90
12504;DHT22;6316;48.118;-1.690;2023-03-29T03:45:55;13.60;99.90
12504;DHT22;6316;48.118;-1.690;2023-03-29T03:48:22;13.60;99.90
12504;DHT22;6316;48.118;-1.690;2023-03-29T03:53:14;13.60;99.90
12504;DHT22;6316;48.118;-1.690;2023-03-29T03:55:40;13.60;99.90
12504;DHT22;6316;48.118;-1.690;2023-03-29T03:58:07;13.60;99.90
12504;DHT22;6316;48.118;-1.690;2023-03-29T04:00:33;13.60;99.90
12504;DHT22;6316;48.118;-1.690;2023-03-29T04:02:58;13.60;99.90
12504;DHT22;6316;48.118;-1.690;2023-03-29T04:05:26;13.60;99.90
12504;DHT22;6316;48.118;-1.690;2023-03-29T04:07:52;13.60;99.90
12504;DHT22;6316;48.118;-1.690;2023-03-29T04:10:18;13.60;99.90
12504;DHT22;6316;48.118;-1.690;2023-03-29T04:12:45;13.60;99.90
12504;DHT22;6316;48.118;-1.690;2023-03-29T04:15:11;13.60;99.90
12504;DHT22;6316;48.118;-1.690;2023-03-29T04:17:36;13.60;99.90
12504;DHT22;6316;48.118;-1.690;2023-03-29T04:20:03;13.60;99.90
12504;DHT22;6316;48.118;-1.690;2023-03-29T04:22:37;13.60;99.90
12504;DHT22;6316;48.118;-1.690;2023-03-29T04:25:03;13.60;99.90
12504;DHT22;6316;48.118;-1.690;2023-03-29T04:27:30;13.60;99.90
12504;DHT22;6316;48.118;-1.690;2023-03-29T04:29:56;13.60;99.90
12504;DHT22;6316;48.118;-1.690;2023-03-29T04:32:21;13.60;99.90
12504;DHT22;6316;48.118;-1.690;2023-03-29T04:34:47;13.60;99.90
12504;DHT22;6316;48.118;-1.690;2023-03-29T04:37:13;13.60;99.90
12504;DHT22;6316;48.118;-1.690;2023-03-29T04:39:38;13.60;99.90
12504;DHT22;6316;48.118;-1.690;2023-03-29T04:42:04;13.60;99.90
12504;DHT22;6316;48.118;-1.690;2023-03-29T04:44:30;13.60;99.90
12504;DHT22;6316;48.118;-1.690;2023-03-29T04:47:00;13.60;99.90
12504;DHT22;6316;48.118;-1.690;2023-03-29T04:49:25;13.60;99.90
12504;DHT22;6316;48.118;-1.690;2023-03-29T04:51:51;13.60;99.90
12504;DHT22;6316;48.118;-1.690;2023-03-29T04:54:19;13.60;99.90
12504;DHT22;6316;48.118;-1.690;2023-03-29T04:56:45;13.60;99.90
12504;DHT22;6316;48.118;-1.690;2023-03-29T04:59:11;13.60;99.90
12504;DHT22;6316;48.118;-1.690;2023-03-29T05:01:36;13.60;99.90
12504;DHT22;6316;48.118;-1.690;2023-03-29T05:04:03;13.60;99.90
12504;DHT22;6316;48.118;-1.690;2023-03-29T05:06:29;13.60;99.90
12504;DHT22;6316;48.118;-1.690;2023-03-29T05:08:55;13.60;99.90
12504;DHT22;6316;48.118;-1.690;2023-03-29T05:11:21;13.60;99.90
12504;DHT22;6316;48.118;-1.690;2023-03-29T05:13:49;13.60;99.90
12504;DHT22;6316;48.118;-1.690;2023-03-29T05:16:15;13.60;99.90
12504;DHT22;6316;48.118;-1.690;2023-03-29T05:18:41;13.60;99.90
12504;DHT22;6316;48.118;-1.690;2023-03-29T05:21:06;13.60;99.90
12504;DHT22;6316;48.118;-1.690;2023-03-29T05:23:33;13.60;99.90
12504;DHT22;6316;48.118;-1.690;2023-03-29T05:25:59;13.60;99.90
12504;DHT22;6316;48.118;-1.690;2023-03-29T05:28:25;13.60;99.90
12504;DHT22;6316;48.118;-1.690;2023-03-29T05:30:59;13.60;99.90
12504;DHT22;6316;48.118;-1.690;2023-03-29T05:33:25;13.50;99.90
12504;DHT22;6316;48.118;-1.690;2023-03-29T05:35:59;13.50;99.90
12504;DHT22;6316;48.118;-1.690;2023-03-29T05:38:24;13.40;99.90
12504;DHT22;6316;48.118;-1.690;2023-03-29T05:40:50;13.30;99.90
12504;DHT22;6316;48.118;-1.690;2023-03-29T05:43:17;13.30;99.90
12504;DHT22;6316;48.118;-1.690;2023-03-29T05:45:42;13.20;99.90
12504;DHT22;6316;48.118;-1.690;2023-03-29T05:48:08;13.10;99.90
12504;DHT22;6316;48.118;-1.690;2023-03-29T05:50:34;13.10;99.90
12504;DHT22;6316;48.118;-1.690;2023-03-29T05:53:01;13.00;99.90
12504;DHT22;6316;48.118;-1.690;2023-03-29T05:55:28;13.00;99.90
12504;DHT22;6316;48.118;-1.690;2023-03-29T05:57:54;13.00;99.90
12504;DHT22;6316;48.118;-1.690;2023-03-29T06:00:20;12.90;99.90
12504;DHT22;6316;48.118;-1.690;2023-03-29T06:02:49;12.90;99.90
12504;DHT22;6316;48.118;-1.690;2023-03-29T06:05:17;12.90;99.90
12504;DHT22;6316;48.118;-1.690;2023-03-29T06:07:44;12.80;99.90
12504;DHT22;6316;48.118;-1.690;2023-03-29T06:10:11;12.80;99.90
12504;DHT22;6316;48.118;-1.690;2023-03-29T06:12:36;12.80;99.90
12504;DHT22;6316;48.118;-1.690;2023-03-29T06:15:03;12.80;99.90
12504;DHT22;6316;48.118;-1.690;2023-03-29T06:17:30;12.70;99.90
12504;DHT22;6316;48.118;-1.690;2023-03-29T06:19:58;12.80;99.90
12504;DHT22;6316;48.118;-1.690;2023-03-29T06:22:23;12.70;99.90
12504;DHT22;6316;48.118;-1.690;2023-03-29T06:24:49;12.70;99.90
12504;DHT22;6316;48.118;-1.690;2023-03-29T06:27:15;12.70;99.90
12504;DHT22;6316;48.118;-1.690;2023-03-29T06:29:41;12.80;99.90
12504;DHT22;6316;48.118;-1.690;2023-03-29T06:32:07;12.70;99.90
12504;DHT22;6316;48.118;-1.690;2023-03-29T06:34:33;12.80;99.90
12504;DHT22;6316;48.118;-1.690;2023-03-29T06:36:59;12.80;99.90
12504;DHT22;6316;48.118;-1.690;2023-03-29T06:39:24;12.90;99.90
12504;DHT22;6316;48.118;-1.690;2023-03-29T06:41:51;13.00;99.90
12504;DHT22;6316;48.118;-1.690;2023-03-29T06:44:17;13.00;99.90
12504;DHT22;6316;48.118;-1.690;2023-03-29T06:46:43;13.00;99.90
12504;DHT22;6316;48.118;-1.690;2023-03-29T06:49:08;13.10;99.90
12504;DHT22;6316;48.118;-1.690;2023-03-29T06:51:34;13.20;99.90
12504;DHT22;6316;48.118;-1.690;2023-03-29T06:54:00;13.30;99.90
12504;DHT22;6316;48.118;-1.690;2023-03-29T06:56:26;13.40;99.90
12504;DHT22;6316;48.118;-1.690;2023-03-29T06:58:54;13.50;99.90
12504;DHT22;6316;48.118;-1.690;2023-03-29T07:01:20;13.60;99.90
12504;DHT22;6316;48.118;-1.690;2023-03-29T07:03:46;13.70;99.90
12504;DHT22;6316;48.118;-1.690;2023-03-29T07:06:12;13.80;99.90
12504;DHT22;6316;48.118;-1.690;2023-03-29T07:08:41;13.90;99.90
12504;DHT22;6316;48.118;-1.690;2023-03-29T07:11:13;13.90;99.90
12504;DHT22;6316;48.118;-1.690;2023-03-29T07:13:42;13.90;99.90
12504;DHT22;6316;48.118;-1.690;2023-03-29T07:16:11;13.90;99.90
12504;DHT22;6316;48.118;-1.690;2023-03-29T07:18:42;13.90;99.90
12504;DHT22;6316;48.118;-1.690;2023-03-29T07:21:09;13.90;99.90
12504;DHT22;6316;48.118;-1.690;2023-03-29T07:23:35;13.80;99.90
12504;DHT22;6316;48.118;-1.690;2023-03-29T07:26:02;13.80;99.90
12504;DHT22;6316;48.118;-1.690;2023-03-29T07:28:28;13.80;99.90
12504;DHT22;6316;48.118;-1.690;2023-03-29T07:31:01;13.80;99.90
12504;DHT22;6316;48.118;-1.690;2023-03-29T07:33:29;13.80;99.90
12504;DHT22;6316;48.118;-1.690;2023-03-29T07:35:55;13.80;99.90
12504;DHT22;6316;48.118;-1.690;2023-03-29T07:38:21;13.80;99.90
12504;DHT22;6316;48.118;-1.690;2023-03-29T07:40:47;13.80;99.90
12504;DHT22;6316;48.118;-1.690;2023-03-29T07:43:12;13.80;99.90
12504;DHT22;6316;48.118;-1.690;2023-03-29T07:45:38;13.80;99.90
12504;DHT22;6316;48.118;-1.690;2023-03-29T07:48:07;13.80;99.90
12504;DHT22;6316;48.118;-1.690;2023-03-29T07:50:33;13.80;99.90
12504;DHT22;6316;48.118;-1.690;2023-03-29T07:52:58;13.80;99.90
12504;DHT22;6316;48.118;-1.690;2023-03-29T07:55:25;13.80;99.90
12504;DHT22;6316;48.118;-1.690;2023-03-29T07:57:51;13.80;99.90
12504;DHT22;6316;48.118;-1.690;2023-03-29T08:00:18;13.80;99.90
12504;DHT22;6316;48.118;-1.690;2023-03-29T08:02:46;13.80;99.90
12504;DHT22;6316;48.118;-1.690;2023-03-29T08:05:13;13.90;99.90
12504;DHT22;6316;48.118;-1.690;2023-03-29T08:07:40;13.90;99.90
12504;DHT22;6316;48.118;-1.690;2023-03-29T08:10:14;13.90;99.90
12504;DHT22;6316;48.118;-1.690;2023-03-29T08:12:41;13.90;99.90
12504;DHT22;6316;48.118;-1.690;2023-03-29T08:15:08;13.90;99.90
12504;DHT22;6316;48.118;-1.690;2023-03-29T08:17:34;14.00;99.90
12504;DHT22;6316;48.118;-1.690;2023-03-29T08:20:02;14.00;99.90
12504;DHT22;6316;48.118;-1.690;2023-03-29T08:22:32;14.00;99.90
12504;DHT22;6316;48.118;-1.690;2023-03-29T08:24:58;14.00;99.90
12504;DHT22;6316;48.118;-1.690;2023-03-29T08:27:24;14.00;99.90
12504;DHT22;6316;48.118;-1.690;2023-03-29T08:29:50;14.10;99.90
12504;DHT22;6316;48.118;-1.690;2023-03-29T08:32:16;14.10;99.90
12504;DHT22;6316;48.118;-1.690;2023-03-29T08:34:42;14.20;99.90
12504;DHT22;6316;48.118;-1.690;2023-03-29T08:37:08;14.20;99.90
12504;DHT22;6316;48.118;-1.690;2023-03-29T08:39:34;14.30;99.90
12504;DHT22;6316;48.118;-1.690;2023-03-29T08:44:53;14.40;99.90
12504;DHT22;6316;48.118;-1.690;2023-03-29T08:48:41;14.40;99.90
12504;DHT22;6316;48.118;-1.690;2023-03-29T08:50:59;14.50;99.90
12504;DHT22;6316;48.118;-1.690;2023-03-29T08:53:40;14.60;99.90
12504;DHT22;6316;48.118;-1.690;2023-03-29T08:56:12;14.70;99.90
12504;DHT22;6316;48.118;-1.690;2023-03-29T08:58:40;14.80;99.90
12504;DHT22;6316;48.118;-1.690;2023-03-29T09:01:07;14.80;99.90
12504;DHT22;6316;48.118;-1.690;2023-03-29T09:04:12;14.90;99.90
12504;DHT22;6316;48.118;-1.690;2023-03-29T09:06:39;14.90;99.90
12504;DHT22;6316;48.118;-1.690;2023-03-29T09:09:13;15.00;99.90
12504;DHT22;6316;48.118;-1.690;2023-03-29T09:14:28;15.10;99.90
12504;DHT22;6316;48.118;-1.690;2023-03-29T09:17:21;15.20;99.90
12504;DHT22;6316;48.118;-1.690;2023-03-29T09:19:53;15.20;99.90
12504;DHT22;6316;48.118;-1.690;2023-03-29T09:22:58;15.30;99.90
12504;DHT22;6316;48.118;-1.690;2023-03-29T09:28:41;15.60;99.90
12504;DHT22;6316;48.118;-1.690;2023-03-29T09:31:20;15.80;99.90
12504;DHT22;6316;48.118;-1.690;2023-03-29T09:36:17;16.10;99.90
12504;DHT22;6316;48.118;-1.690;2023-03-29T09:38:47;16.20;99.90
12504;DHT22;6316;48.118;-1.690;2023-03-29T09:41:35;16.30;99.90
12504;DHT22;6316;48.118;-1.690;2023-03-29T09:44:11;16.40;99.90
12504;DHT22;6316;48.118;-1.690;2023-03-29T09:46:48;16.50;99.90
12504;DHT22;6316;48.118;-1.690;2023-03-29T09:49:21;16.50;99.90
12504;DHT22;6316;48.118;-1.690;2023-03-29T09:51:49;16.50;99.90
12504;DHT22;6316;48.118;-1.690;2023-03-29T09:54:15;16.50;99.90
12504;DHT22;6316;48.118;-1.690;2023-03-29T09:56:41;16.60;99.90
12504;DHT22;6316;48.118;-1.690;2023-03-29T09:59:10;16.60;99.90
12504;DHT22;6316;48.118;-1.690;2023-03-29T10:01:41;16.70;99.90
12504;DHT22;6316;48.118;-1.690;2023-03-29T10:04:10;16.70;99.90
12504;DHT22;6316;48.118;-1.690;2023-03-29T10:06:41;16.70;99.90
12504;DHT22;6316;48.118;-1.690;2023-03-29T10:09:15;16.70;99.90
12504;DHT22;6316;48.118;-1.690;2023-03-29T10:11:46;16.70;99.90
12504;DHT22;6316;48.118;-1.690;2023-03-29T10:14:18;16.70;99.90
12504;DHT22;6316;48.118;-1.690;2023-03-29T10:16:46;16.80;99.90
12504;DHT22;6316;48.118;-1.690;2023-03-29T10:19:27;16.80;99.90
12504;DHT22;6316;48.118;-1.690;2023-03-29T10:21:53;16.90;99.90
12504;DHT22;6316;48.118;-1.690;2023-03-29T10:24:25;16.90;99.90
12504;DHT22;6316;48.118;-1.690;2023-03-29T10:26:52;17.00;99.90
12504;DHT22;6316;48.118;-1.690;2023-03-29T10:29:20;17.10;99.90
12504;DHT22;6316;48.118;-1.690;2023-03-29T10:31:46;17.20;99.90
12504;DHT22;6316;48.118;-1.690;2023-03-29T10:34:14;17.30;99.90
12504;DHT22;6316;48.118;-1.690;2023-03-29T10:36:44;17.30;99.90
12504;DHT22;6316;48.118;-1.690;2023-03-29T10:39:13;17.40;99.90
12504;DHT22;6316;48.118;-1.690;2023-03-29T10:41:41;17.40;99.90
12504;DHT22;6316;48.118;-1.690;2023-03-29T10:44:33;17.50;99.90
12504;DHT22;6316;48.118;-1.690;2023-03-29T10:47:19;17.60;99.90
12504;DHT22;6316;48.118;-1.690;2023-03-29T10:49:52;17.70;99.90
12504;DHT22;6316;48.118;-1.690;2023-03-29T10:52:21;17.70;99.90
12504;DHT22;6316;48.118;-1.690;2023-03-29T10:54:48;17.70;99.90
12504;DHT22;6316;48.118;-1.690;2023-03-29T10:57:22;17.70;99.90
12504;DHT22;6316;48.118;-1.690;2023-03-29T10:59:58;17.80;99.90
12504;DHT22;6316;48.118;-1.690;2023-03-29T11:08:34;18.00;99.90
12504;DHT22;6316;48.118;-1.690;2023-03-29T11:14:05;18.30;99.90
12504;DHT22;6316;48.118;-1.690;2023-03-29T11:16:49;18.40;99.90
12504;DHT22;6316;48.118;-1.690;2023-03-29T11:24:55;18.70;99.90
12504;DHT22;6316;48.118;-1.690;2023-03-29T11:30:29;18.80;99.90
12504;DHT22;6316;48.118;-1.690;2023-03-29T11:38:56;18.90;99.90
12504;DHT22;6316;48.118;-1.690;2023-03-29T11:41:25;19.00;99.90
12504;DHT22;6316;48.118;-1.690;2023-03-29T11:44:07;19.00;99.90
12504;DHT22;6316;48.118;-1.690;2023-03-29T11:54:44;19.20;99.90
12504;DHT22;6316;48.118;-1.690;2023-03-29T11:57:36;19.30;99.90
12504;DHT22;6316;48.118;-1.690;2023-03-29T12:05:25;19.60;99.90
12504;DHT22;6316;48.118;-1.690;2023-03-29T12:07:59;19.70;99.90
12504;DHT22;6316;48.118;-1.690;2023-03-29T12:10:36;19.80;99.90
12504;DHT22;6316;48.118;-1.690;2023-03-29T12:13:27;19.90;99.90
12504;DHT22;6316;48.118;-1.690;2023-03-29T12:16:02;20.00;99.90
12504;DHT22;6316;48.118;-1.690;2023-03-29T12:18:53;20.00;99.90
12504;DHT22;6316;48.118;-1.690;2023-03-29T12:21:21;20.10;99.90
12504;DHT22;6316;48.118;-1.690;2023-03-29T12:23:48;20.20;99.90
12504;DHT22;6316;48.118;-1.690;2023-03-29T12:26:25;20.20;99.90
12504;DHT22;6316;48.118;-1.690;2023-03-29T12:29:29;20.30;99.90
12504;DHT22;6316;48.118;-1.690;2023-03-29T12:35:15;20.50;99.90
12504;DHT22;6316;48.118;-1.690;2023-03-29T12:40:41;20.70;99.90
12504;DHT22;6316;48.118;-1.690;2023-03-29T12:43:17;20.80;99.90
12504;DHT22;6316;48.118;-1.690;2023-03-29T12:45:45;20.80;99.90
12504;DHT22;6316;48.118;-1.690;2023-03-29T12:48:18;20.90;99.90
12504;DHT22;6316;48.118;-1.690;2023-03-29T12:50:46;20.90;99.90
12504;DHT22;6316;48.118;-1.690;2023-03-29T12:53:22;20.90;99.90
12504;DHT22;6316;48.118;-1.690;2023-03-29T12:58:36;21.00;99.90
12504;DHT22;6316;48.118;-1.690;2023-03-29T13:01:07;21.00;99.90
12504;DHT22;6316;48.118;-1.690;2023-03-29T13:03:47;21.10;99.90
12504;DHT22;6316;48.118;-1.690;2023-03-29T13:06:31;21.10;99.90
12504;DHT22;6316;48.118;-1.690;2023-03-29T13:09:25;21.10;99.90
12504;DHT22;6316;48.118;-1.690;2023-03-29T13:11:57;21.20;99.90
12504;DHT22;6316;48.118;-1.690;2023-03-29T13:14:32;21.20;99.90
12504;DHT22;6316;48.118;-1.690;2023-03-29T13:17:06;21.20;99.90
12504;DHT22;6316;48.118;-1.690;2023-03-29T13:19:46;21.20;99.90
12504;DHT22;6316;48.118;-1.690;2023-03-29T13:22:36;21.20;99.90
12504;DHT22;6316;48.118;-1.690;2023-03-29T13:30:38;21.30;99.90
12504;DHT22;6316;48.118;-1.690;2023-03-29T13:35:59;21.20;99.90
12504;DHT22;6316;48.118;-1.690;2023-03-29T13:38:28;21.20;99.90
12504;DHT22;6316;48.118;-1.690;2023-03-29T13:41:00;21.20;99.90
12504;DHT22;6316;48.118;-1.690;2023-03-29T13:46:19;21.20;99.90
12504;DHT22;6316;48.118;-1.690;2023-03-29T13:48:50;21.20;99.90
12504;DHT22;6316;48.118;-1.690;2023-03-29T13:53:57;21.30;99.90
12504;DHT22;6316;48.118;-1.690;2023-03-29T13:56:40;21.30;99.90
12504;DHT22;6316;48.118;-1.690;2023-03-29T14:02:26;21.40;99.90
12504;DHT22;6316;48.118;-1.690;2023-03-29T14:04:55;21.30;99.90
12504;DHT22;6316;48.118;-1.690;2023-03-29T14:07:22;21.40;99.90
12504;DHT22;6316;48.118;-1.690;2023-03-29T14:09:51;21.40;99.90
12504;DHT22;6316;48.118;-1.690;2023-03-29T14:12:17;21.40;99.90
12504;DHT22;6316;48.118;-1.690;2023-03-29T14:14:44;21.40;99.90
12504;DHT22;6316;48.118;-1.690;2023-03-29T14:17:17;21.50;99.90
12504;DHT22;6316;48.118;-1.690;2023-03-29T14:19:45;21.50;99.90
12504;DHT22;6316;48.118;-1.690;2023-03-29T14:22:14;21.50;99.90
12504;DHT22;6316;48.118;-1.690;2023-03-29T14:24:46;21.40;99.90
12504;DHT22;6316;48.118;-1.690;2023-03-29T14:27:13;21.40;99.90
12504;DHT22;6316;48.118;-1.690;2023-03-29T14:29:43;21.40;99.90
12504;DHT22;6316;48.118;-1.690;2023-03-29T14:32:17;21.40;99.90
12504;DHT22;6316;48.118;-1.690;2023-03-29T14:34:47;21.30;99.90
12504;DHT22;6316;48.118;-1.690;2023-03-29T14:37:22;21.30;99.90
12504;DHT22;6316;48.118;-1.690;2023-03-29T14:39:49;21.30;99.90
12504;DHT22;6316;48.118;-1.690;2023-03-29T14:42:18;21.30;99.90
12504;DHT22;6316;48.118;-1.690;2023-03-29T14:44:47;21.30;99.90
12504;DHT22;6316;48.118;-1.690;2023-03-29T14:47:28;21.30;99.90
12504;DHT22;6316;48.118;-1.690;2023-03-29T14:49:55;21.20;99.90
12504;DHT22;6316;48.118;-1.690;2023-03-29T14:52:25;21.20;99.90
12504;DHT22;6316;48.118;-1.690;2023-03-29T14:54:53;21.20;99.90
12504;DHT22;6316;48.118;-1.690;2023-03-29T14:57:25;21.20;99.90
12504;DHT22;6316;48.118;-1.690;2023-03-29T14:59:59;21.20;99.90
12504;DHT22;6316;48.118;-1.690;2023-03-29T15:05:34;21.20;99.90
12504;DHT22;6316;48.118;-1.690;2023-03-29T15:08:02;21.20;99.90
12504;DHT22;6316;48.118;-1.690;2023-03-29T15:10:31;21.20;99.90
12504;DHT22;6316;48.118;-1.690;2023-03-29T15:12:57;21.20;99.90
12504;DHT22;6316;48.118;-1.690;2023-03-29T15:15:25;21.20;99.90
12504;DHT22;6316;48.118;-1.690;2023-03-29T15:17:51;21.20;99.90
12504;DHT22;6316;48.118;-1.690;2023-03-29T15:20:27;21.10;99.90
12504;DHT22;6316;48.118;-1.690;2023-03-29T15:25:26;21.10;99.90
12504;DHT22;6316;48.118;-1.690;2023-03-29T15:27:55;21.10;99.90
12504;DHT22;6316;48.118;-1.690;2023-03-29T15:30:35;21.10;99.90
12504;DHT22;6316;48.118;-1.690;2023-03-29T15:33:19;21.10;99.90
12504;DHT22;6316;48.118;-1.690;2023-03-29T15:35:49;21.00;99.90
12504;DHT22;6316;48.118;-1.690;2023-03-29T15:38:15;21.00;99.90
12504;DHT22;6316;48.118;-1.690;2023-03-29T15:40:43;20.90;99.90
12504;DHT22;6316;48.118;-1.690;2023-03-29T15:43:10;20.90;99.90
12504;DHT22;6316;48.118;-1.690;2023-03-29T15:45:35;20.80;99.90
12504;DHT22;6316;48.118;-1.690;2023-03-29T15:48:01;20.80;99.90
12504;DHT22;6316;48.118;-1.690;2023-03-29T15:50:30;20.80;99.90
12504;DHT22;6316;48.118;-1.690;2023-03-29T15:52:56;20.80;99.90
12504;DHT22;6316;48.118;-1.690;2023-03-29T15:55:25;20.70;99.90
12504;DHT22;6316;48.118;-1.690;2023-03-29T15:57:55;20.70;99.90
12504;DHT22;6316;48.118;-1.690;2023-03-29T16:00:22;20.70;99.90
12504;DHT22;6316;48.118;-1.690;2023-03-29T16:02:49;20.60;99.90
12504;DHT22;6316;48.118;-1.690;2023-03-29T16:05:16;20.60;99.90
12504;DHT22;6316;48.118;-1.690;2023-03-29T16:07:41;20.50;99.90
12504;DHT22;6316;48.118;-1.690;2023-03-29T16:10:07;20.50;99.90
12504;DHT22;6316;48.118;-1.690;2023-03-29T16:12:34;20.40;99.90
12504;DHT22;6316;48.118;-1.690;2023-03-29T16:15:10;20.40;99.90
12504;DHT22;6316;48.118;-1.690;2023-03-29T16:17:37;20.30;99.90
12504;DHT22;6316;48.118;-1.690;2023-03-29T16:20:03;20.30;99.90
12504;DHT22;6316;48.118;-1.690;2023-03-29T16:22:29;20.20;99.90
12504;DHT22;6316;48.118;-1.690;2023-03-29T16:24:56;20.20;99.90
12504;DHT22;6316;48.118;-1.690;2023-03-29T16:27:22;20.20;99.90
12504;DHT22;6316;48.118;-1.690;2023-03-29T16:29:48;20.20;99.90
12504;DHT22;6316;48.118;-1.690;2023-03-29T16:32:13;20.20;99.90
12504;DHT22;6316;48.118;-1.690;2023-03-29T16:34:39;20.20;99.90
12504;DHT22;6316;48.118;-1.690;2023-03-29T16:37:06;20.20;99.90
12504;DHT22;6316;48.118;-1.690;2023-03-29T16:39:32;20.10;99.90
12504;DHT22;6316;48.118;-1.690;2023-03-29T16:41:57;20.10;99.90
12504;DHT22;6316;48.118;-1.690;2023-03-29T16:44:23;20.00;99.90
12504;DHT22;6316;48.118;-1.690;2023-03-29T16:46:51;19.90;99.90
12504;DHT22;6316;48.118;-1.690;2023-03-29T16:49:18;19.90;99.90
12504;DHT22;6316;48.118;-1.690;2023-03-29T16:51:47;19.80;99.90
12504;DHT22;6316;48.118;-1.690;2023-03-29T16:54:13;19.70;99.90
12504;DHT22;6316;48.118;-1.690;2023-03-29T16:56:39;19.60;99.90
12504;DHT22;6316;48.118;-1.690;2023-03-29T16:59:05;19.50;99.90
12504;DHT22;6316;48.118;-1.690;2023-03-29T17:01:31;19.40;99.90
12504;DHT22;6316;48.118;-1.690;2023-03-29T17:03:56;19.30;99.90
12504;DHT22;6316;48.118;-1.690;2023-03-29T17:06:22;19.20;99.90
12504;DHT22;6316;48.118;-1.690;2023-03-29T17:08:48;19.20;99.90
12504;DHT22;6316;48.118;-1.690;2023-03-29T17:11:14;19.10;99.90
12504;DHT22;6316;48.118;-1.690;2023-03-29T17:13:40;19.10;99.90
12504;DHT22;6316;48.118;-1.690;2023-03-29T17:16:06;19.10;99.90
12504;DHT22;6316;48.118;-1.690;2023-03-29T17:18:32;19.10;99.90
12504;DHT22;6316;48.118;-1.690;2023-03-29T17:20:58;19.10;99.90
12504;DHT22;6316;48.118;-1.690;2023-03-29T17:23:24;19.10;99.90